Time;durP1;ratioP1;P1;durP2;ratioP2;P2;SDS_P1;SDS_P2;PMS_P1;PMS_P2;Temp;Humidity;BMP_temperature;BMP_pressure;BME280_temperature;BME280_humidity;BME280_pressure;Samples;Min_cycle;Max_cycle;Signal;HPM_P1;HPM_P2
2022/10/18 00:01:42;;;;;;;12.98;9.93;;;;;;;;;;5071334;28;20028;-80
2022/10/18 00:04:08;;;;;;;16.77;11.23;;;;;;;;;;5071933;28;20391;-83
2022/10/18 00:06:35;;;;;;;22.38;10.57;;;;;;;;;;5056783;28;20028;-83
2022/10/18 00:09:01;;;;;;;14.45;9.18;;;;;;;;;;5071737;28;20020;-84
2022/10/18 00:11:27;;;;;;;15.27;8.82;;;;;;;;;;5054491;28;20036;-83
2022/10/18 00:13:55;;;;;;;13.52;9.65;;;;;;;;;;5069285;28;20021;-82
2022/10/18 00:16:21;;;;;;;;;;;;;;;;;;5064446;28;20119;-83
2022/10/18 00:18:47;;;;;;;16.02;8.45;;;;;;;;;;5084222;28;20269;-82
2022/10/18 00:21:14;;;;;;;14.70;9.75;;;;;;;;;;5062627;28;20150;-85
2022/10/18 00:23:41;;;;;;;15.55;8.65;;;;;;;;;;5058791;28;20100;-83
2022/10/18 00:26:10;;;;;;;13.00;8.43;;;;;;;;;;5058429;28;20016;-81
2022/10/18 00:28:37;;;;;;;14.13;7.90;;;;;;;;;;5052827;28;20025;-82
2022/10/18 00:31:14;;;;;;;11.80;8.60;;;;;;;;;;5065299;28;20024;-83
2022/10/18 00:33:41;;;;;;;10.95;8.55;;;;;;;;;;5072457;28;20130;-83
2022/10/18 00:36:07;;;;;;;;;;;;;;;;;;5042561;28;20082;-82
2022/10/18 00:38:34;;;;;;;13.40;8.25;;;;;;;;;;5062958;28;19912;-82
2022/10/18 00:41:00;;;;;;;13.82;8.40;;;;;;;;;;5057234;28;20033;-82
2022/10/18 00:43:26;;;;;;;15.30;9.40;;;;;;;;;;5076341;28;20021;-83
2022/10/18 00:45:52;;;;;;;12.00;8.60;;;;;;;;;;5057941;28;20025;-82
2022/10/18 00:48:19;;;;;;;12.60;8.50;;;;;;;;;;5051350;28;20078;-83
2022/10/18 00:50:46;;;;;;;13.32;8.38;;;;;;;;;;5040683;28;20045;-82
2022/10/18 00:53:14;;;;;;;11.52;6.70;;;;;;;;;;5079347;28;20024;-81
2022/10/18 00:55:41;;;;;;;14.60;8.20;;;;;;;;;;5066812;28;20540;-81
2022/10/18 00:58:07;;;;;;;14.48;8.10;;;;;;;;;;5073042;28;20032;-83
2022/10/18 01:00:37;;;;;;;11.48;8.02;;;;;;;;;;5075830;28;20032;-84
2022/10/18 01:03:03;;;;;;;9.95;8.15;;;;;;;;;;5075381;28;20539;-82
2022/10/18 01:05:30;;;;;;;13.10;7.80;;;;;;;;;;5053435;28;20841;-83
2022/10/18 01:08:18;;;;;;;15.30;8.07;;;;;;;;;;5047880;28;20443;-82
2022/10/18 01:11:03;;;;;;;12.27;8.10;;;;;;;;;;5056499;28;20036;-82
2022/10/18 01:13:29;;;;;;;14.60;8.40;;;;;;;;;;5075652;28;20037;-81
2022/10/18 01:16:01;;;;;;;12.30;8.05;;;;;;;;;;5089744;28;20021;-83
2022/10/18 01:18:35;;;;;;;13.80;9.10;;;;;;;;;;5075408;28;20036;-82
2022/10/18 01:21:14;;;;;;;11.63;7.45;;;;;;;;;;5054521;28;20021;-81
2022/10/18 01:23:59;;;;;;;12.52;8.38;;;;;;;;;;5052121;28;20035;-83
2022/10/18 01:26:43;;;;;;;12.95;7.65;;;;;;;;;;5078566;28;20084;-82
2022/10/18 01:29:18;;;;;;;15.13;8.23;;;;;;;;;;5087879;28;20020;-83
2022/10/18 01:31:44;;;;;;;12.02;8.57;;;;;;;;;;5065913;28;20033;-81
2022/10/18 01:34:13;;;;;;;11.70;8.93;;;;;;;;;;5055982;28;20094;-81
2022/10/18 01:36:45;;;;;;;14.45;8.30;;;;;;;;;;5074284;28;20359;-82
2022/10/18 01:39:14;;;;;;;13.40;7.80;;;;;;;;;;5078303;28;20095;-82
2022/10/18 01:41:41;;;;;;;11.32;8.50;;;;;;;;;;5078850;28;20029;-81
2022/10/18 01:44:09;;;;;;;11.73;8.60;;;;;;;;;;5055604;28;20025;-82
2022/10/18 01:46:36;;;;;;;14.23;8.40;;;;;;;;;;5054084;28;20033;-82
2022/10/18 01:49:03;;;;;;;10.48;7.85;;;;;;;;;;5067462;28;20032;-81
2022/10/18 01:51:31;;;;;;;12.32;8.30;;;;;;;;;;5053754;28;20033;-82
2022/10/18 01:53:57;;;;;;;13.68;8.77;;;;;;;;;;5077534;28;20029;-82
2022/10/18 01:56:41;;;;;;;13.90;7.93;;;;;;;;;;5070980;28;20024;-82
2022/10/18 01:59:23;;;;;;;12.18;8.20;;;;;;;;;;5072888;28;20066;-82
2022/10/18 02:02:01;;;;;;;13.30;8.18;;;;;;;;;;5061997;28;20112;-81
2022/10/18 02:04:40;;;;;;;13.57;8.65;;;;;;;;;;5071934;28;20059;-81
2022/10/18 02:07:13;;;;;;;12.30;8.52;;;;;;;;;;5073330;28;20358;-81
2022/10/18 02:09:44;;;;;;;15.90;8.68;;;;;;;;;;5073053;28;20100;-82
2022/10/18 02:12:13;;;;;;;12.98;8.02;;;;;;;;;;5043176;28;20371;-82
2022/10/18 02:14:40;;;;;;;12.23;9.02;;;;;;;;;;5074093;28;20039;-81
2022/10/18 02:17:09;;;;;;;14.65;8.57;;;;;;;;;;5077264;28;20031;-81
2022/10/18 02:19:40;;;;;;;14.15;8.63;;;;;;;;;;5061201;28;20038;-82
2022/10/18 02:22:07;;;;;;;14.50;8.07;;;;;;;;;;5074922;28;20060;-81
2022/10/18 02:24:33;;;;;;;;;;;;;;;;;;5069003;28;20439;-82
2022/10/18 02:26:59;;;;;;;15.43;9.15;;;;;;;;;;5073868;28;19916;-81
2022/10/18 02:29:26;;;;;;;13.18;8.30;;;;;;;;;;5074572;28;20028;-80
2022/10/18 02:31:55;;;;;;;13.45;7.97;;;;;;;;;;5071590;28;20398;-81
2022/10/18 02:34:28;;;;;;;11.10;7.85;;;;;;;;;;5053461;28;281633;-82
2022/10/18 02:36:57;;;;;;;10.30;8.50;;;;;;;;;;5057167;28;20025;-82
2022/10/18 02:39:37;;;;;;;14.10;8.50;;;;;;;;;;5052415;28;20028;-81
2022/10/18 02:42:08;;;;;;;12.23;8.40;;;;;;;;;;5074441;28;20029;-80
2022/10/18 02:44:34;;;;;;;15.73;8.60;;;;;;;;;;5083439;28;20028;-80
2022/10/18 02:47:00;;;;;;;13.43;7.63;;;;;;;;;;5070861;28;20071;-82
2022/10/18 02:49:27;;;;;;;18.00;9.10;;;;;;;;;;5063688;28;20028;-82
2022/10/18 02:51:53;;;;;;;13.93;8.63;;;;;;;;;;5070951;28;20036;-82
2022/10/18 02:54:19;;;;;;;15.07;8.82;;;;;;;;;;5061545;28;20069;-82
2022/10/18 02:56:45;;;;;;;12.25;8.45;;;;;;;;;;5073600;28;20028;-81
2022/10/18 02:59:12;;;;;;;9.73;7.70;;;;;;;;;;5073639;28;20377;-83
2022/10/18 03:01:38;;;;;;;11.57;7.93;;;;;;;;;;5072380;28;20024;-82
2022/10/18 03:04:04;;;;;;;11.45;8.18;;;;;;;;;;5073081;28;20491;-83
2022/10/18 03:06:30;;;;;;;17.90;9.50;;;;;;;;;;5072171;28;20024;-82
2022/10/18 03:08:57;;;;;;;10.02;7.60;;;;;;;;;;5054371;28;20028;-84
2022/10/18 03:11:23;;;;;;;11.35;7.38;;;;;;;;;;5051851;28;20070;-83
2022/10/18 03:13:49;;;;;;;10.88;8.15;;;;;;;;;;5067611;28;20020;-81
2022/10/18 03:16:16;;;;;;;11.80;8.53;;;;;;;;;;5049659;28;20024;-83
2022/10/18 03:18:42;;;;;;;11.57;8.30;;;;;;;;;;5066461;28;20024;-85
2022/10/18 03:21:09;;;;;;;13.20;8.18;;;;;;;;;;5058057;28;20032;-84
2022/10/18 03:23:35;;;;;;;11.00;7.93;;;;;;;;;;5050137;28;20076;-83
2022/10/18 03:26:01;;;;;;;14.63;8.85;;;;;;;;;;5056698;28;20024;-84
2022/10/18 03:28:28;;;;;;;9.93;7.30;;;;;;;;;;5075591;28;20031;-83
2022/10/18 03:31:01;;;;;;;14.95;7.72;;;;;;;;;;5086944;28;20051;-84
2022/10/18 03:33:28;;;;;;;9.60;6.60;;;;;;;;;;5072660;28;20038;-83
2022/10/18 03:35:54;;;;;;;15.55;8.25;;;;;;;;;;5063631;28;20058;-82
2022/10/18 03:38:20;;;;;;;14.32;7.70;;;;;;;;;;5051597;28;20020;-83
2022/10/18 03:40:46;;;;;;;12.95;7.72;;;;;;;;;;5067016;28;20024;-81
2022/10/18 03:43:12;;;;;;;10.93;7.55;;;;;;;;;;5077859;28;20077;-81
2022/10/18 03:45:42;;;;;;;13.05;8.45;;;;;;;;;;5089544;28;20028;-83
2022/10/18 03:48:08;;;;;;;16.98;8.07;;;;;;;;;;5055589;28;20029;-82
2022/10/18 03:50:42;;;;;;;10.75;7.20;;;;;;;;;;5073031;28;20037;-85
2022/10/18 03:53:08;;;;;;;11.70;7.55;;;;;;;;;;5051548;28;20031;-84
2022/10/18 03:55:34;;;;;;;10.32;7.22;;;;;;;;;;5059255;28;20394;-82
2022/10/18 03:58:00;;;;;;;12.70;7.57;;;;;;;;;;5062101;28;20467;-84
2022/10/18 04:00:27;;;;;;;12.00;7.75;;;;;;;;;;5066471;28;20031;-84
2022/10/18 04:02:53;;;;;;;15.13;8.18;;;;;;;;;;5061504;28;20103;-82
2022/10/18 04:05:19;;;;;;;11.70;8.52;;;;;;;;;;5071329;28;20025;-83
2022/10/18 04:07:45;;;;;;;20.73;9.13;;;;;;;;;;5052264;28;20021;-83
2022/10/18 04:10:11;;;;;;;17.25;8.77;;;;;;;;;;5046973;28;20055;-80
2022/10/18 04:12:37;;;;;;;11.32;7.38;;;;;;;;;;5066059;28;20086;-84
2022/10/18 04:15:04;;;;;;;13.60;8.45;;;;;;;;;;5042009;28;20025;-82
2022/10/18 04:17:30;;;;;;;15.73;8.23;;;;;;;;;;5051514;28;20017;-83
2022/10/18 04:19:56;;;;;;;15.55;8.90;;;;;;;;;;5072284;28;20027;-84
2022/10/18 04:22:22;;;;;;;14.73;9.13;;;;;;;;;;5060989;28;20056;-85
2022/10/18 04:24:48;;;;;;;12.63;8.05;;;;;;;;;;5060743;28;20084;-82
2022/10/18 04:27:14;;;;;;;14.57;8.70;;;;;;;;;;5056297;28;20044;-83
2022/10/18 04:29:40;;;;;;;11.82;8.43;;;;;;;;;;5046738;28;20024;-83
2022/10/18 04:32:06;;;;;;;18.67;8.80;;;;;;;;;;5073468;28;20074;-82
2022/10/18 04:34:33;;;;;;;14.20;8.35;;;;;;;;;;5056774;28;20041;-83
2022/10/18 04:36:59;;;;;;;13.10;8.45;;;;;;;;;;5038650;28;20032;-82
2022/10/18 04:39:25;;;;;;;19.13;9.13;;;;;;;;;;5040872;28;20048;-81
2022/10/18 04:41:51;;;;;;;15.68;9.63;;;;;;;;;;5039551;28;20021;-85
2022/10/18 04:44:17;;;;;;;14.98;8.23;;;;;;;;;;5049650;28;20028;-83
2022/10/18 04:46:43;;;;;;;16.58;10.60;;;;;;;;;;5046445;28;20028;-86
2022/10/18 04:49:09;;;;;;;15.35;9.13;;;;;;;;;;5039092;28;20078;-85
2022/10/18 04:51:35;;;;;;;12.10;8.77;;;;;;;;;;5052873;28;20440;-84
2022/10/18 04:54:02;;;;;;;13.95;9.00;;;;;;;;;;5032908;28;20029;-85
2022/10/18 04:56:28;;;;;;;14.35;8.55;;;;;;;;;;5034963;28;20132;-82
2022/10/18 04:58:54;;;;;;;14.32;9.30;;;;;;;;;;5050852;28;20032;-83
2022/10/18 05:01:20;;;;;;;15.75;8.43;;;;;;;;;;5045593;28;20386;-84
2022/10/18 05:03:46;;;;;;;17.33;9.18;;;;;;;;;;5052444;28;20112;-84
2022/10/18 05:06:12;;;;;;;13.13;8.95;;;;;;;;;;5061346;28;20036;-83
2022/10/18 05:08:39;;;;;;;21.70;10.57;;;;;;;;;;5046373;28;20366;-84
2022/10/18 05:11:05;;;;;;;18.83;8.65;;;;;;;;;;5036920;28;20025;-82
2022/10/18 05:13:31;;;;;;;15.73;9.85;;;;;;;;;;5048931;28;20028;-84
2022/10/18 05:15:59;;;;;;;12.82;7.88;;;;;;;;;;5051976;28;20033;-83
2022/10/18 05:18:25;;;;;;;12.30;9.07;;;;;;;;;;5044156;28;20017;-82
2022/10/18 05:20:51;;;;;;;13.20;9.02;;;;;;;;;;5037472;28;20025;-81
2022/10/18 05:23:17;;;;;;;14.27;8.75;;;;;;;;;;5062041;28;20025;-85
2022/10/18 05:25:43;;;;;;;18.52;10.07;;;;;;;;;;5059081;28;20108;-83
2022/10/18 05:28:10;;;;;;;13.63;9.45;;;;;;;;;;5050001;28;20025;-84
2022/10/18 05:30:39;;;;;;;12.30;9.38;;;;;;;;;;5034056;28;20025;-83
2022/10/18 05:33:06;;;;;;;17.58;10.57;;;;;;;;;;5042697;28;20033;-84
2022/10/18 05:35:32;;;;;;;15.70;10.45;;;;;;;;;;5058484;28;20068;-84
2022/10/18 05:38:01;;;;;;;17.92;10.70;;;;;;;;;;5055770;28;20029;-86
2022/10/18 05:40:27;;;;;;;18.30;10.85;;;;;;;;;;5042927;28;20021;-84
2022/10/18 05:42:53;;;;;;;19.00;12.13;;;;;;;;;;5061054;28;20072;-82
2022/10/18 05:45:19;;;;;;;17.23;11.07;;;;;;;;;;5079891;28;20043;-83
2022/10/18 05:47:46;;;;;;;15.93;11.38;;;;;;;;;;5052930;28;20115;-82
2022/10/18 05:50:12;;;;;;;15.88;10.95;;;;;;;;;;5073935;28;20017;-86
2022/10/18 05:52:38;;;;;;;14.20;10.52;;;;;;;;;;5048309;28;20413;-83
2022/10/18 05:55:04;;;;;;;18.73;11.50;;;;;;;;;;5062030;28;20025;-82
2022/10/18 05:57:31;;;;;;;16.85;11.60;;;;;;;;;;5053639;28;20554;-83
2022/10/18 05:59:57;;;;;;;15.60;11.83;;;;;;;;;;5067640;28;20020;-81
2022/10/18 06:02:23;;;;;;;17.95;11.63;;;;;;;;;;5075217;28;20032;-83
2022/10/18 06:04:50;;;;;;;16.60;12.52;;;;;;;;;;5065709;28;20390;-80
2022/10/18 06:07:16;;;;;;;20.33;14.00;;;;;;;;;;5053263;28;20036;-82
2022/10/18 06:09:42;;;;;;;15.88;12.10;;;;;;;;;;5076246;28;20539;-85
2022/10/18 06:12:08;;;;;;;18.55;11.70;;;;;;;;;;5075143;28;20044;-84
2022/10/18 06:14:35;;;;;;;20.50;12.52;;;;;;;;;;5063006;28;20434;-85
2022/10/18 06:17:02;;;;;;;20.02;12.73;;;;;;;;;;5049556;28;20413;-85
2022/10/18 06:19:28;;;;;;;16.17;11.00;;;;;;;;;;5077229;28;20398;-85
2022/10/18 06:21:54;;;;;;;20.33;13.25;;;;;;;;;;5074405;28;20036;-83
2022/10/18 06:24:20;;;;;;;16.13;12.50;;;;;;;;;;5041289;28;20096;-85
2022/10/18 06:26:47;;;;;;;22.98;12.05;;;;;;;;;;5072920;28;20020;-82
2022/10/18 06:29:13;;;;;;;22.85;12.35;;;;;;;;;;5069313;28;20032;-84
2022/10/18 06:31:39;;;;;;;21.50;12.77;;;;;;;;;;5041348;28;20595;-84
2022/10/18 06:34:05;;;;;;;21.35;13.52;;;;;;;;;;5070017;28;20044;-84
2022/10/18 06:36:31;;;;;;;19.38;12.30;;;;;;;;;;5048179;28;20032;-84
2022/10/18 06:38:58;;;;;;;18.98;13.38;;;;;;;;;;5081736;28;20025;-82
2022/10/18 06:41:25;;;;;;;24.00;13.52;;;;;;;;;;5055289;28;20116;-83
2022/10/18 06:43:52;;;;;;;26.17;15.85;;;;;;;;;;5075244;28;20056;-84
2022/10/18 06:46:18;;;;;;;22.48;13.63;;;;;;;;;;5076068;28;20097;-82
2022/10/18 06:48:45;;;;;;;20.67;13.55;;;;;;;;;;5059776;28;20013;-84
2022/10/18 06:51:11;;;;;;;20.73;14.38;;;;;;;;;;5061563;28;20040;-82
2022/10/18 06:53:38;;;;;;;21.48;16.50;;;;;;;;;;5070199;28;20027;-82
2022/10/18 06:56:06;;;;;;;24.48;15.43;;;;;;;;;;5074208;28;20029;-83
2022/10/18 06:58:32;;;;;;;;;;;;;;;;;;5054803;28;20115;-85
2022/10/18 07:00:58;;;;;;;21.08;14.65;;;;;;;;;;5052678;28;19908;-85
2022/10/18 07:03:26;;;;;;;20.73;14.13;;;;;;;;;;5048710;28;20035;-84
2022/10/18 07:05:52;;;;;;;21.65;13.73;;;;;;;;;;5073483;28;20099;-84
2022/10/18 07:08:18;;;;;;;20.63;13.68;;;;;;;;;;5070780;28;20161;-84
2022/10/18 07:10:52;;;;;;;20.80;14.48;;;;;;;;;;5049987;28;20036;-86
2022/10/18 07:13:18;;;;;;;25.35;16.50;;;;;;;;;;5048575;28;20028;-87
2022/10/18 07:15:44;;;;;;;24.38;14.10;;;;;;;;;;5072815;28;20059;-85
2022/10/18 07:18:10;;;;;;;21.45;14.02;;;;;;;;;;5060358;28;20032;-87
2022/10/18 07:20:36;;;;;;;18.23;12.65;;;;;;;;;;5069834;28;20027;-84
2022/10/18 07:23:05;;;;;;;18.52;12.70;;;;;;;;;;5046973;28;20028;-88
2022/10/18 07:25:32;;;;;;;24.95;14.93;;;;;;;;;;5060676;28;20106;-90
2022/10/18 07:27:58;;;;;;;27.92;14.02;;;;;;;;;;5055254;28;20490;-84
2022/10/18 07:30:24;;;;;;;24.15;13.52;;;;;;;;;;5073068;28;20029;-86
2022/10/18 07:32:51;;;;;;;21.42;13.88;;;;;;;;;;5055674;28;20076;-85
2022/10/18 07:35:17;;;;;;;22.00;14.87;;;;;;;;;;5053143;28;20052;-86
2022/10/18 07:37:43;;;;;;;26.48;14.80;;;;;;;;;;5044080;28;20091;-85
2022/10/18 07:40:10;;;;;;;22.20;12.82;;;;;;;;;;5069423;28;20029;-87
2022/10/18 07:42:37;;;;;;;22.55;14.88;;;;;;;;;;5058157;28;20013;-85
2022/10/18 07:45:03;;;;;;;18.27;11.52;;;;;;;;;;5070123;28;20033;-88
2022/10/18 07:47:29;;;;;;;24.90;15.13;;;;;;;;;;5067418;28;20021;-83
2022/10/18 07:49:55;;;;;;;20.25;13.00;;;;;;;;;;5066514;28;20025;-87
2022/10/18 07:52:22;;;;;;;22.65;14.90;;;;;;;;;;5063689;28;20065;-85
2022/10/18 07:54:48;;;;;;;22.50;13.35;;;;;;;;;;5052297;28;20024;-84
2022/10/18 07:57:14;;;;;;;26.23;14.85;;;;;;;;;;5055688;28;20021;-87
2022/10/18 07:59:40;;;;;;;23.90;16.77;;;;;;;;;;5037114;28;20071;-86
2022/10/18 08:02:06;;;;;;;31.63;16.63;;;;;;;;;;5065328;28;20035;-86
2022/10/18 08:04:32;;;;;;;23.90;14.27;;;;;;;;;;5042083;28;20036;-90
2022/10/18 08:06:58;;;;;;;26.02;18.00;;;;;;;;;;5057098;28;20389;-89
2022/10/18 08:09:26;;;;;;;27.52;17.33;;;;;;;;;;5077714;28;20036;-89
2022/10/18 08:11:52;;;;;;;24.67;16.02;;;;;;;;;;5054888;28;20048;-89
2022/10/18 08:14:18;;;;;;;25.25;15.73;;;;;;;;;;5063519;28;20017;-90
2022/10/18 08:16:44;;;;;;;30.48;18.05;;;;;;;;;;5063845;28;20052;-90
2022/10/18 08:19:11;;;;;;;28.70;15.90;;;;;;;;;;5038664;28;20049;-83
2022/10/18 08:21:37;;;;;;;27.83;18.45;;;;;;;;;;5059505;28;20478;-86
2022/10/18 08:24:03;;;;;;;25.38;16.10;;;;;;;;;;5062153;28;20021;-87
2022/10/18 08:26:29;;;;;;;32.03;18.77;;;;;;;;;;5043696;28;20037;-85
2022/10/18 08:28:55;;;;;;;33.08;18.77;;;;;;;;;;5056848;28;20035;-91
2022/10/18 08:31:21;;;;;;;27.98;18.38;;;;;;;;;;5055368;28;20108;-91
2022/10/18 08:33:47;;;;;;;34.25;20.15;;;;;;;;;;5039392;28;20059;-91
2022/10/18 08:36:15;;;;;;;34.67;18.25;;;;;;;;;;5057184;28;20541;-88
2022/10/18 08:38:41;;;;;;;34.40;19.55;;;;;;;;;;5054456;28;20032;-86
2022/10/18 08:41:16;;;;;;;39.10;20.57;;;;;;;;;;5057300;28;20552;-82
2022/10/18 08:43:46;;;;;;;36.08;20.50;;;;;;;;;;5037349;28;20025;-85
2022/10/18 08:46:13;;;;;;;41.85;22.45;;;;;;;;;;5050083;28;20214;-86
2022/10/18 08:48:41;;;;;;;30.83;19.38;;;;;;;;;;5043375;28;20410;-84
2022/10/18 08:51:22;;;;;;;35.13;20.90;;;;;;;;;;5039848;28;20044;-87
2022/10/18 08:53:54;;;;;;;35.30;21.23;;;;;;;;;;5054582;28;20029;-86
2022/10/18 08:56:23;;;;;;;26.20;17.65;;;;;;;;;;5052787;28;20032;-84
2022/10/18 08:58:49;;;;;;;30.90;20.15;;;;;;;;;;5055238;28;20056;-84
2022/10/18 09:01:33;;;;;;;31.75;19.20;;;;;;;;;;5066108;28;20032;-86
2022/10/18 09:04:06;;;;;;;19.63;13.70;;;;;;;;;;5060198;28;20025;-86
2022/10/18 09:06:35;;;;;;;26.98;18.70;;;;;;;;;;5046822;28;20111;-87
2022/10/18 09:09:24;;;;;;;22.50;14.85;;;;;;;;;;5066640;28;20047;-85
2022/10/18 09:11:51;;;;;;;23.67;17.27;;;;;;;;;;5067196;28;20112;-90
2022/10/18 09:14:25;;;;;;;24.10;16.60;;;;;;;;;;5058185;28;20070;-86
2022/10/18 09:17:03;;;;;;;24.38;15.55;;;;;;;;;;5065060;28;20120;-85
2022/10/18 09:19:53;;;;;;;23.17;15.38;;;;;;;;;;5058492;28;20029;-90
2022/10/18 09:22:20;;;;;;;21.75;15.38;;;;;;;;;;5061632;28;20029;-87
2022/10/18 09:25:02;;;;;;;28.80;17.73;;;;;;;;;;5042690;28;20108;-88
2022/10/18 09:27:44;;;;;;;22.75;16.17;;;;;;;;;;5056876;28;20166;-89
2022/10/18 09:30:25;;;;;;;21.58;16.25;;;;;;;;;;5057178;28;20496;-91
2022/10/18 09:32:56;;;;;;;19.10;14.32;;;;;;;;;;5055320;28;20091;-86
2022/10/18 09:35:24;;;;;;;20.60;14.85;;;;;;;;;;5052437;28;20764;-85
2022/10/18 09:37:56;;;;;;;25.10;15.27;;;;;;;;;;5043845;28;20361;-85
2022/10/18 09:40:24;;;;;;;23.25;15.35;;;;;;;;;;5038352;28;20474;-85
2022/10/18 09:43:11;;;;;;;19.48;14.35;;;;;;;;;;5046104;28;20057;-85
2022/10/18 09:45:40;;;;;;;22.60;15.38;;;;;;;;;;5056340;28;20109;-84
2022/10/18 09:48:23;;;;;;;21.60;14.63;;;;;;;;;;5045868;28;20036;-83
2022/10/18 09:51:13;;;;;;;22.98;14.77;;;;;;;;;;5046709;28;20120;-83
2022/10/18 09:53:55;;;;;;;20.63;15.65;;;;;;;;;;5048670;28;20030;-83
2022/10/18 09:56:30;;;;;;;21.05;15.48;;;;;;;;;;5046115;28;20494;-83
2022/10/18 09:58:56;;;;;;;24.40;15.90;;;;;;;;;;5051605;28;20112;-85
2022/10/18 10:01:24;;;;;;;25.00;16.63;;;;;;;;;;5035474;28;20022;-83
2022/10/18 10:03:51;;;;;;;21.33;14.85;;;;;;;;;;5037466;28;20386;-85
2022/10/18 10:06:24;;;;;;;19.98;13.77;;;;;;;;;;5035741;28;20598;-85
2022/10/18 10:08:54;;;;;;;17.73;14.45;;;;;;;;;;5034723;28;20029;-85
2022/10/18 10:11:27;;;;;;;19.67;15.25;;;;;;;;;;5033581;28;20368;-84
2022/10/18 10:13:56;;;;;;;21.02;15.30;;;;;;;;;;5050919;28;20037;-85
2022/10/18 10:16:23;;;;;;;21.45;15.88;;;;;;;;;;5033326;28;20029;-89
2022/10/18 10:18:53;;;;;;;19.13;13.88;;;;;;;;;;5045050;28;20133;-84
2022/10/18 10:21:19;;;;;;;19.25;14.27;;;;;;;;;;5037571;28;20092;-84
2022/10/18 10:23:49;;;;;;;19.02;13.65;;;;;;;;;;5035814;28;20089;-85
2022/10/18 10:26:27;;;;;;;22.83;16.38;;;;;;;;;;5042782;28;20071;-89
2022/10/18 10:28:53;;;;;;;21.15;15.02;;;;;;;;;;5040293;28;20052;-85
2022/10/18 10:31:23;;;;;;;20.73;15.73;;;;;;;;;;5034286;28;20126;-84
2022/10/18 10:33:57;;;;;;;21.77;14.70;;;;;;;;;;5040392;28;20182;-85
2022/10/18 10:36:23;;;;;;;21.77;18.25;;;;;;;;;;5055343;28;20028;-85
2022/10/18 10:39:21;;;;;;;20.27;14.55;;;;;;;;;;5053271;28;20035;-83
2022/10/18 10:41:49;;;;;;;20.48;15.88;;;;;;;;;;5020889;28;20040;-86
2022/10/18 10:44:19;;;;;;;22.52;15.63;;;;;;;;;;5066990;28;20020;-83
2022/10/18 10:46:47;;;;;;;22.15;15.80;;;;;;;;;;5064718;28;20081;-86
2022/10/18 10:49:19;;;;;;;22.33;16.33;;;;;;;;;;5038070;28;20044;-85
2022/10/18 10:51:46;;;;;;;24.77;17.27;;;;;;;;;;5055306;28;20033;-87
2022/10/18 10:54:17;;;;;;;20.13;16.10;;;;;;;;;;5042980;28;20370;-85
2022/10/18 10:56:54;;;;;;;20.20;16.83;;;;;;;;;;5066321;28;20021;-89
2022/10/18 10:59:21;;;;;;;27.50;17.30;;;;;;;;;;5061930;28;20027;-84
2022/10/18 11:01:50;;;;;;;22.80;17.58;;;;;;;;;;5065462;28;20048;-87
2022/10/18 11:04:24;;;;;;;23.55;18.83;;;;;;;;;;5052574;28;20056;-84
2022/10/18 11:07:08;;;;;;;24.80;17.35;;;;;;;;;;5067413;28;20072;-86
2022/10/18 11:10:04;;;;;;;27.13;19.20;;;;;;;;;;5061792;28;20048;-89
2022/10/18 11:12:43;;;;;;;23.88;19.58;;;;;;;;;;5046696;28;20132;-91
2022/10/18 11:15:13;;;;;;;27.90;21.58;;;;;;;;;;5074463;28;20035;-92
2022/10/18 11:17:39;;;;;;;24.20;20.08;;;;;;;;;;5062984;28;20005;-90
2022/10/18 11:20:24;;;;;;;26.35;18.30;;;;;;;;;;5075090;28;20037;-91
2022/10/18 11:22:57;;;;;;;25.70;20.08;;;;;;;;;;5052256;28;20397;-90
2022/10/18 11:25:40;;;;;;;26.45;20.52;;;;;;;;;;5076552;28;20016;-90
2022/10/18 11:28:12;;;;;;;26.50;21.23;;;;;;;;;;5048481;28;20030;-89
2022/10/18 11:30:47;;;;;;;25.50;20.17;;;;;;;;;;5076934;28;20032;-89
2022/10/18 11:33:16;;;;;;;25.58;21.67;;;;;;;;;;5042525;28;20048;-91
2022/10/18 11:35:49;;;;;;;23.20;20.08;;;;;;;;;;5049891;28;20036;-89
2022/10/18 11:38:16;;;;;;;26.73;20.33;;;;;;;;;;5081134;28;20121;-83
2022/10/18 11:41:00;;;;;;;26.70;20.00;;;;;;;;;;5072111;28;20071;-85
2022/10/18 11:43:42;;;;;;;23.80;20.42;;;;;;;;;;5053140;28;20092;-85
2022/10/18 11:46:10;;;;;;;25.52;20.90;;;;;;;;;;5035415;28;20090;-84
2022/10/18 11:48:39;;;;;;;24.30;19.20;;;;;;;;;;5053899;28;20009;-83
2022/10/18 11:51:10;;;;;;;24.35;18.05;;;;;;;;;;5057514;28;20055;-84
2022/10/18 11:53:58;;;;;;;27.15;19.52;;;;;;;;;;5068866;28;20023;-86
2022/10/18 11:56:41;;;;;;;24.40;19.42;;;;;;;;;;5065675;28;20021;-88
2022/10/18 11:59:09;;;;;;;21.83;17.05;;;;;;;;;;5059580;28;20029;-93
2022/10/18 12:01:42;;;;;;;25.05;20.85;;;;;;;;;;5066393;28;20040;-93
2022/10/18 12:04:19;;;;;;;22.98;19.60;;;;;;;;;;5075004;28;20096;-92
2022/10/18 12:06:46;;;;;;;28.20;19.33;;;;;;;;;;5071032;28;20025;-90
2022/10/18 12:09:19;;;;;;;24.65;18.55;;;;;;;;;;5065645;28;20104;-91
2022/10/18 12:12:05;;;;;;;24.63;17.27;;;;;;;;;;5050679;28;20135;-90
2022/10/18 12:14:47;;;;;;;23.20;18.47;;;;;;;;;;5057550;28;20032;-90
2022/10/18 12:17:35;;;;;;;21.65;17.42;;;;;;;;;;5065499;28;20108;-91
2022/10/18 12:20:07;;;;;;;22.33;18.85;;;;;;;;;;5049735;28;20097;-88
2022/10/18 12:22:37;;;;;;;21.73;18.27;;;;;;;;;;5064665;28;20027;-88
2022/10/18 12:25:06;;;;;;;22.48;20.08;;;;;;;;;;5067583;28;20047;-92
2022/10/18 12:27:41;;;;;;;22.55;17.25;;;;;;;;;;5028982;28;20041;-90
2022/10/18 12:30:14;;;;;;;22.85;18.15;;;;;;;;;;5018969;28;20026;-86
2022/10/18 12:32:40;;;;;;;23.17;18.63;;;;;;;;;;5029374;28;20049;-88
2022/10/18 12:35:10;;;;;;;27.67;18.43;;;;;;;;;;5021372;28;20448;-92
2022/10/18 12:37:36;;;;;;;22.67;19.75;;;;;;;;;;5028605;28;20109;-88
2022/10/18 12:40:06;;;;;;;25.00;19.00;;;;;;;;;;5046488;28;20021;-89
2022/10/18 12:42:34;;;;;;;23.33;18.40;;;;;;;;;;5028407;28;20037;-90
2022/10/18 12:45:01;;;;;;;22.70;19.90;;;;;;;;;;5048667;28;20029;-90
2022/10/18 12:47:28;;;;;;;21.88;17.35;;;;;;;;;;5038214;28;20041;-91
2022/10/18 12:49:59;;;;;;;21.48;16.80;;;;;;;;;;5043093;28;20017;-90
2022/10/18 12:52:27;;;;;;;23.48;17.55;;;;;;;;;;5003231;28;20050;-90
2022/10/18 12:55:01;;;;;;;20.65;15.55;;;;;;;;;;5047829;28;20068;-91
2022/10/18 12:57:47;;;;;;;23.60;17.33;;;;;;;;;;5031387;28;20073;-89
2022/10/18 13:00:46;;;;;;;18.63;16.50;;;;;;;;;;5053327;28;20098;-89
2022/10/18 13:03:16;;;;;;;22.98;17.63;;;;;;;;;;5049328;28;20393;-90
2022/10/18 13:05:50;;;;;;;19.80;15.25;;;;;;;;;;5069933;28;20009;-90
2022/10/18 13:08:23;;;;;;;22.90;18.52;;;;;;;;;;5069589;28;20013;-92
2022/10/18 13:11:09;;;;;;;15.32;11.88;;;;;;;;;;5058029;28;20021;-94
2022/10/18 13:13:53;;;;;;;17.25;14.07;;;;;;;;;;5068522;28;20044;-91
2022/10/18 13:16:22;;;;;;;18.15;14.57;;;;;;;;;;5070073;28;20149;-83
2022/10/18 13:18:56;;;;;;;14.68;12.20;;;;;;;;;;5058275;28;20021;-84
2022/10/18 13:21:40;;;;;;;13.18;11.10;;;;;;;;;;5038933;28;20075;-82
2022/10/18 13:24:06;;;;;;;13.07;10.88;;;;;;;;;;5066030;28;20055;-85
2022/10/18 13:26:41;;;;;;;13.02;9.90;;;;;;;;;;5063834;28;20103;-85
2022/10/18 13:29:24;;;;;;;14.20;10.63;;;;;;;;;;5038583;28;20033;-85
2022/10/18 13:32:17;;;;;;;10.68;8.63;;;;;;;;;;5056130;28;20037;-86
2022/10/18 13:34:43;;;;;;;10.98;8.35;;;;;;;;;;5053163;28;20410;-83
2022/10/18 13:37:09;;;;;;;8.88;7.97;;;;;;;;;;5041787;28;20123;-86
2022/10/18 13:39:36;;;;;;;10.02;8.90;;;;;;;;;;5068902;28;20028;-81
2022/10/18 13:42:02;;;;;;;9.40;7.32;;;;;;;;;;5074887;28;20024;-85
2022/10/18 13:44:36;;;;;;;9.18;7.60;;;;;;;;;;5081734;28;20025;-85
2022/10/18 13:47:02;;;;;;;7.82;5.88;;;;;;;;;;5072956;28;20100;-83
2022/10/18 13:49:34;;;;;;;8.80;6.65;;;;;;;;;;5065475;28;20025;-83
2022/10/18 13:52:10;;;;;;;6.60;5.93;;;;;;;;;;5064375;28;20071;-84
2022/10/18 13:54:43;;;;;;;8.52;6.68;;;;;;;;;;5040228;28;20425;-84
2022/10/18 13:57:09;;;;;;;11.85;6.40;;;;;;;;;;5042310;28;20079;-85
2022/10/18 13:59:44;;;;;;;7.38;5.90;;;;;;;;;;5043504;28;20025;-85
2022/10/18 14:02:27;;;;;;;6.22;5.13;;;;;;;;;;5068378;28;20044;-85
2022/10/18 14:05:13;;;;;;;7.45;6.07;;;;;;;;;;5072873;28;20029;-87
2022/10/18 14:07:41;;;;;;;7.43;5.50;;;;;;;;;;5066515;28;20062;-83
2022/10/18 14:10:22;;;;;;;5.88;4.07;;;;;;;;;;5045733;28;20032;-85
2022/10/18 14:12:53;;;;;;;4.85;3.50;;;;;;;;;;5067589;28;20040;-85
2022/10/18 14:15:27;;;;;;;5.93;4.00;;;;;;;;;;5038947;28;20591;-84
2022/10/18 14:17:58;;;;;;;4.18;3.45;;;;;;;;;;5077882;28;20036;-86
2022/10/18 14:20:45;;;;;;;7.13;3.33;;;;;;;;;;5041179;28;20367;-85
2022/10/18 14:23:11;;;;;;;;;;;;;;;;;;5051766;28;20065;-85
2022/10/18 14:25:38;;;;;;;3.95;2.92;;;;;;;;;;5057618;28;19931;-82
2022/10/18 14:28:14;;;;;;;4.22;2.85;;;;;;;;;;5074484;28;20032;-82
2022/10/18 14:30:54;;;;;;;5.05;2.83;;;;;;;;;;5060230;28;20385;-83
2022/10/18 14:33:26;;;;;;;5.05;2.90;;;;;;;;;;5053905;28;20103;-82
2022/10/18 14:36:18;;;;;;;5.68;3.10;;;;;;;;;;5044273;28;20025;-83
2022/10/18 14:38:50;;;;;;;4.63;2.67;;;;;;;;;;5055098;28;20056;-82
2022/10/18 14:41:17;;;;;;;4.28;3.55;;;;;;;;;;5069515;28;20016;-88
2022/10/18 14:43:43;;;;;;;4.15;3.47;;;;;;;;;;5048980;28;20176;-87